Cordell Hull Observed Data For Previous 48 Hours

Caption
Day and Hour Reservoir Elevation (behind dam)* Tailwater Elevation (below dam)* Average Hourly Discharge*
9/21/2017 1 AM CDT 504.08 448.78 7,755
9/21/2017 2 AM CDT 504.10 448.20 7,665
9/21/2017 3 AM CDT 504.24 446.24 0
9/21/2017 4 AM CDT 504.22 445.44 0
9/21/2017 5 AM CDT 504.25 444.85 0
9/21/2017 6 AM CDT 504.32 444.52 0
9/21/2017 7 AM CDT 504.25 445.75 7,350
9/21/2017 8 AM CDT 504.13 447.73 15,180
9/21/2017 9 AM CDT 504.13 449.13 15,600
9/21/2017 10 AM CDT 504.12 449.62 15,700
9/21/2017 11 AM CDT 504.06 449.86 15,760
9/21/2017 12 PM CDT 504.03 450.03 15,800
9/21/2017 1 PM CDT 503.99 450.19 15,880
9/21/2017 2 PM CDT 503.93 450.23 15,920
9/21/2017 3 PM CDT 503.91 450.31 15,960
9/21/2017 4 PM CDT 503.90 450.30 15,960
9/21/2017 5 PM CDT 503.88 450.28 15,960
9/21/2017 6 PM CDT 503.87 450.27 15,960
9/21/2017 7 PM CDT 503.86 450.26 15,960
9/21/2017 8 PM CDT 503.83 450.23 15,960
9/21/2017 9 PM CDT 503.82 450.32 16,000
9/21/2017 10 PM CDT 503.79 450.39 16,040
9/21/2017 11 PM CDT 503.86 448.86 7,800
9/22/2017 12 AM CDT 504.09 446.79 0
9/22/2017 1 AM CDT 504.03 445.93 0
9/22/2017 2 AM CDT 504.09 445.49 0
9/22/2017 3 AM CDT 504.16 444.96 0
9/22/2017 4 AM CDT 504.22 444.52 0
9/22/2017 5 AM CDT 504.28 444.38 0
9/22/2017 6 AM CDT 504.36 444.26 0
9/22/2017 7 AM CDT 504.32 445.62 7,330
9/22/2017 8 AM CDT 504.20 448.40 15,360
9/22/2017 9 AM CDT 504.19 448.99 15,540
9/22/2017 10 AM CDT 504.20 449.40 15,640
9/22/2017 11 AM CDT 504.13 449.73 15,720
9/22/2017 12 PM CDT 504.09 449.89 15,760
9/22/2017 1 PM CDT 504.04 450.14 15,840
9/22/2017 2 PM CDT 503.98 450.08 15,840
9/22/2017 3 PM CDT 503.97 450.17 15,880
9/22/2017 4 PM CDT 503.96 450.16 15,880
9/22/2017 5 PM CDT 503.95 450.15 15,880
9/22/2017 6 PM CDT 503.94 450.24 15,920
9/22/2017 7 PM CDT 503.92 450.42 16,000
9/22/2017 8 PM CDT 503.89 450.69 16,120
9/22/2017 9 PM CDT 503.87 450.87 16,200
9/22/2017 10 PM CDT 503.84 451.04 16,260
9/22/2017 11 PM CDT 503.79 451.09 16,290
9/23/2017 12 AM CDT 503.89 449.39 7,850

Elevations are in feet above sea level. Discharges are in cubic feet per second and are reported at the end of the hour.